Bogalusa, LA

8:28 AM CDT on April 30, 2017 (GMT -0500)
Carr Memorial

Weather History for KBXA - November, 2012

Change the Weather History Date:

Friday, November 9, 2012

  Actual Average Record
Temperature  
Mean Temperature 54 °F -  
Max Temperature 72 °F 72 °F 76 °F (2016)
Min Temperature 35 °F 47 °F 38 °F (2014)
Degree Days  
Heating Degree Days 12    
Growing Degree Days 4 (Base 50)    
Moisture  
Dew Point 44 °F    
Average Humidity 75    
Maximum Humidity 100    
Minimum Humidity 37    
Precipitation  
Precipitation 0.00 in - - ()
Sea Level Pressure  
Sea Level Pressure 30.24 in    
Wind  
Wind Speed 2 mph ()    
Max Wind Speed 10 mph    
Max Gust Speed -    
Visibility 9.6 miles    
Events      
Averages and records for this station are not official NWS values.
T = Trace of Precipitation, MM = Missing Value Source: Averaged Metar Reports

Daily Weather History Graph

Daily Weather History Graph

Search for Another Location

Airport or City:

Trip Planner

Search our weather history database for the weather conditions in past years. The results will help you decide how hot, cold, wet, or windy it might be!

Date:

Astronomy

Nov. 09, 2012 Rise Set
Actual Time 6:21 AM CST 5:04 PM CST
Civil Twilight 5:56 AM CST 5:30 PM CST
Nautical Twilight 5:27 AM CST 5:59 PM CST
Astronomical Twilight 4:58 AM CST 6:27 PM CST
Moon 1:38 AM CST (11/9) 2:02 PM CST (11/9)
Length of Visible Light 11h 34m
Length of Day
10h 43m
Waning Crescent, 23% of the Moon is Illuminated
Nov 9
Waning Crescent
Nov 13
New
Nov 20
First Quarter
Nov 28
Full
Dec 6
Last Quarter

Hourly Weather History & Observations

Time (CST) Temp. Dew Point Humidity Pressure Visibility Wind Dir Wind Speed Gust Speed Precip Events Conditions
12:15 AM 38.5 °F 38.5 °F 100% 30.23 in 10.0 mi Calm Calm - N/A   Unknown
12:35 AM 39.2 °F 39.2 °F 100% 30.23 in 10.0 mi Calm Calm - N/A   Unknown
12:55 AM 39.2 °F 39.2 °F 100% 30.23 in 10.0 mi Calm Calm - N/A   Unknown
1:15 AM 38.5 °F 38.5 °F 100% 30.22 in 10.0 mi Calm Calm - N/A   Unknown
1:35 AM 37.4 °F 37.4 °F 100% 30.22 in 10.0 mi Calm Calm - N/A   Unknown
1:55 AM 37.6 °F 37.6 °F 100% 30.22 in 10.0 mi Calm Calm - N/A   Unknown
2:15 AM 36.5 °F 36.5 °F 100% 30.22 in 10.0 mi Calm Calm - N/A   Unknown
2:55 AM 36.9 °F 36.9 °F 100% 30.22 in 7.0 mi Calm Calm - N/A   Unknown
3:15 AM 36.5 °F 36.5 °F 100% 30.22 in 10.0 mi Calm Calm - N/A   Unknown
3:35 AM 35.6 °F 35.6 °F 100% 30.23 in 7.0 mi Calm Calm - N/A   Unknown
3:55 AM 36.3 °F 36.3 °F 100% 30.24 in 10.0 mi Calm Calm - N/A   Unknown
4:15 AM 36.1 °F 36.1 °F 100% 30.24 in 10.0 mi Calm Calm - N/A   Unknown
4:55 AM 35.6 °F 35.6 °F 100% 30.25 in 10.0 mi Calm Calm - N/A   Unknown
5:15 AM 35.1 °F 35.1 °F 100% 30.26 in 10.0 mi Calm Calm - N/A   Unknown
5:35 AM 35.6 °F 35.6 °F 100% 30.26 in 10.0 mi Calm Calm - N/A   Unknown
5:55 AM 36.1 °F 36.1 °F 100% 30.26 in 10.0 mi Calm Calm - N/A   Unknown
6:15 AM 36.1 °F 36.1 °F 100% 30.27 in 10.0 mi Calm Calm - N/A   Unknown
6:55 AM 36.5 °F 36.5 °F 100% 30.27 in 10.0 mi Calm Calm - N/A   Unknown
7:15 AM 38.8 °F 38.8 °F 100% 30.28 in 10.0 mi Calm Calm - N/A   Unknown
7:35 AM 41.0 °F 41.0 °F 100% 30.29 in 10.0 mi Calm Calm - N/A   Unknown
7:55 AM 43.9 °F 43.9 °F 100% 30.29 in 10.0 mi Calm Calm - N/A   Unknown
8:15 AM 44.4 °F 44.4 °F 100% 30.30 in 10.0 mi Calm Calm - N/A   Unknown
8:35 AM 48.7 °F 45.9 °F 90% 30.30 in 10.0 mi Calm Calm - N/A   Unknown
8:55 AM 52.7 °F 44.8 °F 74% 30.30 in 10.0 mi Calm Calm - N/A   Unknown
9:15 AM 56.3 °F 44.8 °F 65% 30.30 in 10.0 mi ESE 3.5 mph - N/A   Unknown
9:35 AM 59.0 °F 45.1 °F 60% 30.30 in 10.0 mi ESE 3.5 mph - N/A   Unknown
9:55 AM 60.6 °F 46.0 °F 59% 30.29 in 10.0 mi SSE 4.6 mph - N/A   Unknown
10:15 AM 63.0 °F 47.3 °F 57% 30.29 in 10.0 mi SSE 5.8 mph - N/A   Unknown
10:35 AM 64.6 °F 47.3 °F 53% 30.28 in 10.0 mi SE 5.8 mph - N/A   Unknown
10:55 AM 66.6 °F 48.0 °F 51% 30.28 in 10.0 mi SSE 6.9 mph - N/A   Unknown
11:15 AM 67.3 °F 48.6 °F 51% 30.27 in 10.0 mi SE 9.2 mph - N/A   Unknown
11:35 AM 68.0 °F 48.2 °F 49% 30.26 in 10.0 mi South 3.5 mph - N/A   Unknown
11:55 AM 69.3 °F 48.4 °F 47% 30.25 in 10.0 mi SSW 10.4 mph - N/A   Unknown
12:15 PM 69.4 °F 48.0 °F 46% 30.24 in 10.0 mi SSW 5.8 mph - N/A   Unknown
12:35 PM 69.8 °F 47.3 °F 45% 30.23 in 10.0 mi SSW 5.8 mph - N/A   Unknown
12:55 PM 70.7 °F 47.1 °F 43% 30.22 in 10.0 mi SE 3.5 mph - N/A   Unknown
1:15 PM 70.3 °F 45.7 °F 41% 30.21 in 10.0 mi SSW 4.6 mph - N/A   Unknown
1:35 PM 71.4 °F 45.5 °F 39% 30.21 in 10.0 mi SW 5.8 mph - N/A   Unknown
1:55 PM 72.0 °F 46.6 °F 40% 30.20 in 10.0 mi Calm Calm - N/A   Unknown
2:15 PM 72.0 °F 44.1 °F 37% 30.20 in 10.0 mi SSE 6.9 mph - N/A   Unknown
2:35 PM 72.3 °F 45.0 °F 37% 30.20 in 10.0 mi South 5.8 mph - N/A   Unknown
2:55 PM 71.8 °F 45.9 °F 39% 30.19 in 10.0 mi South 5.8 mph - N/A   Unknown
3:15 PM 72.0 °F 45.7 °F 39% 30.19 in 10.0 mi SE 3.5 mph - N/A   Unknown
3:35 PM 71.6 °F 46.2 °F 40% 30.19 in 10.0 mi South 6.9 mph - N/A   Unknown
3:55 PM 71.1 °F 47.3 °F 43% 30.20 in 10.0 mi SSE 8.1 mph - N/A   Unknown
4:15 PM 70.3 °F 47.7 °F 44% 30.20 in 10.0 mi SSE 8.1 mph - N/A   Unknown
4:35 PM 69.1 °F 48.0 °F 47% 30.20 in 10.0 mi SSE 8.1 mph - N/A   Unknown
5:15 PM 65.3 °F 49.3 °F 56% 30.20 in 10.0 mi SSE 4.6 mph - N/A   Unknown
5:35 PM 63.9 °F 49.3 °F 59% 30.20 in 10.0 mi SSE 5.8 mph - N/A   Unknown
5:55 PM 62.6 °F 49.5 °F 62% 30.21 in 10.0 mi SSE 3.5 mph - N/A   Unknown
6:15 PM 61.0 °F 50.0 °F 67% 30.22 in 10.0 mi South 5.8 mph - N/A   Clear
6:35 PM 60.1 °F 50.4 °F 70% 30.22 in 10.0 mi SSE 5.8 mph - N/A   Clear
6:55 PM 59.9 °F 50.7 °F 72% 30.22 in 10.0 mi SSE 3.5 mph - N/A   Clear
7:15 PM 58.8 °F 50.5 °F 74% 30.23 in 10.0 mi SSE 4.6 mph - N/A   Clear
7:35 PM 58.1 °F 50.7 °F 76% 30.23 in 10.0 mi SSE 3.5 mph - N/A   Clear
7:55 PM 54.9 °F 50.2 °F 84% 30.23 in 10.0 mi Calm Calm - N/A   Clear
8:15 PM 51.1 °F 51.1 °F 100% 30.23 in 10.0 mi Calm Calm - N/A   Unknown
8:35 PM 52.0 °F 52.0 °F 100% 30.24 in 10.0 mi Calm Calm - N/A   Unknown
8:55 PM 50.0 °F 50.0 °F 100% 30.24 in 5.0 mi Calm Calm - N/A   Mist
9:15 PM 49.6 °F 49.6 °F 100% 30.24 in 7.0 mi Calm Calm - N/A   Clear
9:35 PM 47.8 °F 47.8 °F 100% 30.24 in 7.0 mi Calm Calm - N/A   Clear
9:55 PM 48.6 °F 48.6 °F 100% 30.24 in 5.0 mi Calm Calm - N/A   Mist